sensor_id;sensor_type;location;lat;lon;timestamp;temperature;humidity
61412;DHT22;47278;49.732;7.690;2022-07-25T00:00:42;17.30;99.90
61412;DHT22;47278;49.732;7.690;2022-07-25T00:03:08;17.30;99.90
61412;DHT22;47278;49.732;7.690;2022-07-25T00:05:34;17.30;99.90
61412;DHT22;47278;49.732;7.690;2022-07-25T00:08:00;17.20;99.90
61412;DHT22;47278;49.732;7.690;2022-07-25T00:10:26;17.10;99.90
61412;DHT22;47278;49.732;7.690;2022-07-25T00:12:52;17.10;99.90
61412;DHT22;47278;49.732;7.690;2022-07-25T00:15:18;17.10;99.90
61412;DHT22;47278;49.732;7.690;2022-07-25T00:17:43;17.00;99.90
61412;DHT22;47278;49.732;7.690;2022-07-25T00:20:09;17.00;99.90
61412;DHT22;47278;49.732;7.690;2022-07-25T00:22:35;17.00;99.90
61412;DHT22;47278;49.732;7.690;2022-07-25T00:25:00;17.00;99.90
61412;DHT22;47278;49.732;7.690;2022-07-25T00:27:26;16.90;99.90
61412;DHT22;47278;49.732;7.690;2022-07-25T00:29:52;16.90;99.90
61412;DHT22;47278;49.732;7.690;2022-07-25T00:32:18;16.70;99.90
61412;DHT22;47278;49.732;7.690;2022-07-25T00:34:44;16.70;99.90
61412;DHT22;47278;49.732;7.690;2022-07-25T00:37:09;16.70;99.90
61412;DHT22;47278;49.732;7.690;2022-07-25T00:39:35;16.70;99.90
61412;DHT22;47278;49.732;7.690;2022-07-25T00:42:01;16.70;99.90
61412;DHT22;47278;49.732;7.690;2022-07-25T00:44:28;16.60;99.90
61412;DHT22;47278;49.732;7.690;2022-07-25T00:46:54;16.60;99.90
61412;DHT22;47278;49.732;7.690;2022-07-25T00:49:20;16.70;99.90
61412;DHT22;47278;49.732;7.690;2022-07-25T00:51:46;16.60;99.90
61412;DHT22;47278;49.732;7.690;2022-07-25T00:54:12;16.50;99.90
61412;DHT22;47278;49.732;7.690;2022-07-25T00:56:38;16.50;99.90
61412;DHT22;47278;49.732;7.690;2022-07-25T00:59:04;16.50;99.90
61412;DHT22;47278;49.732;7.690;2022-07-25T01:01:30;16.50;99.90
61412;DHT22;47278;49.732;7.690;2022-07-25T01:03:56;16.50;99.90
61412;DHT22;47278;49.732;7.690;2022-07-25T01:06:21;16.40;99.90
61412;DHT22;47278;49.732;7.690;2022-07-25T01:08:48;16.30;99.90
61412;DHT22;47278;49.732;7.690;2022-07-25T01:11:13;16.20;99.90
61412;DHT22;47278;49.732;7.690;2022-07-25T01:13:39;16.30;99.90
61412;DHT22;47278;49.732;7.690;2022-07-25T01:16:05;16.30;99.90
61412;DHT22;47278;49.732;7.690;2022-07-25T01:18:31;16.30;99.90
61412;DHT22;47278;49.732;7.690;2022-07-25T01:20:59;16.20;99.90
61412;DHT22;47278;49.732;7.690;2022-07-25T01:23:25;16.10;99.90
61412;DHT22;47278;49.732;7.690;2022-07-25T01:25:51;16.20;99.90
61412;DHT22;47278;49.732;7.690;2022-07-25T01:28:16;16.20;99.90
61412;DHT22;47278;49.732;7.690;2022-07-25T01:30:42;16.20;99.90
61412;DHT22;47278;49.732;7.690;2022-07-25T01:33:08;16.10;99.90
61412;DHT22;47278;49.732;7.690;2022-07-25T01:35:34;16.10;99.90
61412;DHT22;47278;49.732;7.690;2022-07-25T01:38:00;16.10;99.90
61412;DHT22;47278;49.732;7.690;2022-07-25T01:40:25;16.00;99.90
61412;DHT22;47278;49.732;7.690;2022-07-25T01:42:51;15.90;99.90
61412;DHT22;47278;49.732;7.690;2022-07-25T01:45:17;15.90;99.90
61412;DHT22;47278;49.732;7.690;2022-07-25T01:47:43;15.80;99.90
61412;DHT22;47278;49.732;7.690;2022-07-25T01:50:08;15.80;99.90
61412;DHT22;47278;49.732;7.690;2022-07-25T01:52:35;15.80;99.90
61412;DHT22;47278;49.732;7.690;2022-07-25T01:55:01;15.80;99.90
61412;DHT22;47278;49.732;7.690;2022-07-25T01:57:26;15.70;99.90
61412;DHT22;47278;49.732;7.690;2022-07-25T01:59:52;15.80;99.90
61412;DHT22;47278;49.732;7.690;2022-07-25T02:02:18;15.80;99.90
61412;DHT22;47278;49.732;7.690;2022-07-25T02:04:44;15.80;99.90
61412;DHT22;47278;49.732;7.690;2022-07-25T02:07:09;15.80;99.90
61412;DHT22;47278;49.732;7.690;2022-07-25T02:09:35;15.80;99.90
61412;DHT22;47278;49.732;7.690;2022-07-25T02:12:01;15.70;99.90
61412;DHT22;47278;49.732;7.690;2022-07-25T02:14:26;15.70;99.90
61412;DHT22;47278;49.732;7.690;2022-07-25T02:16:52;15.60;99.90
61412;DHT22;47278;49.732;7.690;2022-07-25T02:19:18;15.70;99.90
61412;DHT22;47278;49.732;7.690;2022-07-25T02:21:44;15.70;99.90
61412;DHT22;47278;49.732;7.690;2022-07-25T02:24:10;15.60;99.90
61412;DHT22;47278;49.732;7.690;2022-07-25T02:29:38;15.50;99.90
61412;DHT22;47278;49.732;7.690;2022-07-25T02:32:04;15.50;99.90
61412;DHT22;47278;49.732;7.690;2022-07-25T02:34:30;15.50;99.90
61412;DHT22;47278;49.732;7.690;2022-07-25T02:36:55;15.60;99.90
61412;DHT22;47278;49.732;7.690;2022-07-25T02:39:21;15.60;99.90
61412;DHT22;47278;49.732;7.690;2022-07-25T02:41:47;15.50;99.90
61412;DHT22;47278;49.732;7.690;2022-07-25T02:44:13;15.40;99.90
61412;DHT22;47278;49.732;7.690;2022-07-25T02:46:39;15.40;99.90
61412;DHT22;47278;49.732;7.690;2022-07-25T02:49:04;15.40;99.90
61412;DHT22;47278;49.732;7.690;2022-07-25T02:51:30;15.40;99.90
61412;DHT22;47278;49.732;7.690;2022-07-25T02:53:56;15.40;99.90
61412;DHT22;47278;49.732;7.690;2022-07-25T02:56:22;15.30;99.90
61412;DHT22;47278;49.732;7.690;2022-07-25T02:58:47;15.30;99.90
61412;DHT22;47278;49.732;7.690;2022-07-25T03:01:13;15.20;99.90
61412;DHT22;47278;49.732;7.690;2022-07-25T03:03:39;15.30;99.90
61412;DHT22;47278;49.732;7.690;2022-07-25T03:06:05;15.30;99.90
61412;DHT22;47278;49.732;7.690;2022-07-25T03:08:31;15.30;99.90
61412;DHT22;47278;49.732;7.690;2022-07-25T03:10:56;15.20;99.90
61412;DHT22;47278;49.732;7.690;2022-07-25T03:13:23;15.20;99.90
61412;DHT22;47278;49.732;7.690;2022-07-25T03:15:49;15.10;99.90
61412;DHT22;47278;49.732;7.690;2022-07-25T03:18:14;15.20;99.90
61412;DHT22;47278;49.732;7.690;2022-07-25T03:20:40;15.20;99.90
61412;DHT22;47278;49.732;7.690;2022-07-25T03:23:06;15.00;99.90
61412;DHT22;47278;49.732;7.690;2022-07-25T03:25:31;15.00;99.90
61412;DHT22;47278;49.732;7.690;2022-07-25T03:27:57;15.00;99.90
61412;DHT22;47278;49.732;7.690;2022-07-25T03:30:23;15.00;99.90
61412;DHT22;47278;49.732;7.690;2022-07-25T03:32:49;15.00;99.90
61412;DHT22;47278;49.732;7.690;2022-07-25T03:35:14;14.90;99.90
61412;DHT22;47278;49.732;7.690;2022-07-25T03:37:40;14.90;99.90
61412;DHT22;47278;49.732;7.690;2022-07-25T03:40:06;14.90;99.90
61412;DHT22;47278;49.732;7.690;2022-07-25T03:42:33;14.80;99.90
61412;DHT22;47278;49.732;7.690;2022-07-25T03:44:59;14.90;99.90
61412;DHT22;47278;49.732;7.690;2022-07-25T03:47:24;14.90;99.90
61412;DHT22;47278;49.732;7.690;2022-07-25T03:49:50;14.90;99.90
61412;DHT22;47278;49.732;7.690;2022-07-25T03:52:16;14.90;99.90
61412;DHT22;47278;49.732;7.690;2022-07-25T03:54:42;14.80;99.90
61412;DHT22;47278;49.732;7.690;2022-07-25T03:57:08;14.80;99.90
61412;DHT22;47278;49.732;7.690;2022-07-25T03:59:34;14.80;99.90
61412;DHT22;47278;49.732;7.690;2022-07-25T04:02:00;14.70;99.90
61412;DHT22;47278;49.732;7.690;2022-07-25T04:04:26;14.70;99.90
61412;DHT22;47278;49.732;7.690;2022-07-25T04:06:52;14.70;99.90
61412;DHT22;47278;49.732;7.690;2022-07-25T04:09:17;15.00;99.90
61412;DHT22;47278;49.732;7.690;2022-07-25T04:11:43;14.80;99.90
61412;DHT22;47278;49.732;7.690;2022-07-25T04:14:09;14.80;99.90
61412;DHT22;47278;49.732;7.690;2022-07-25T04:16:35;14.80;99.90
61412;DHT22;47278;49.732;7.690;2022-07-25T04:19:00;14.80;99.90
61412;DHT22;47278;49.732;7.690;2022-07-25T04:21:26;14.80;99.90
61412;DHT22;47278;49.732;7.690;2022-07-25T04:23:52;14.80;99.90
61412;DHT22;47278;49.732;7.690;2022-07-25T04:26:18;14.80;99.90
61412;DHT22;47278;49.732;7.690;2022-07-25T04:28:44;14.90;99.90
61412;DHT22;47278;49.732;7.690;2022-07-25T04:31:10;14.90;99.90
61412;DHT22;47278;49.732;7.690;2022-07-25T04:33:38;14.80;99.90
61412;DHT22;47278;49.732;7.690;2022-07-25T04:36:04;14.90;99.90
61412;DHT22;47278;49.732;7.690;2022-07-25T04:38:30;14.90;99.90
61412;DHT22;47278;49.732;7.690;2022-07-25T04:40:56;14.90;99.90
61412;DHT22;47278;49.732;7.690;2022-07-25T04:43:22;15.00;99.90
61412;DHT22;47278;49.732;7.690;2022-07-25T04:45:48;15.00;99.90
61412;DHT22;47278;49.732;7.690;2022-07-25T04:48:14;14.90;99.90
61412;DHT22;47278;49.732;7.690;2022-07-25T04:50:39;15.00;99.90
61412;DHT22;47278;49.732;7.690;2022-07-25T04:53:05;15.00;99.90
61412;DHT22;47278;49.732;7.690;2022-07-25T04:55:31;15.10;99.90
61412;DHT22;47278;49.732;7.690;2022-07-25T04:57:57;15.10;99.90
61412;DHT22;47278;49.732;7.690;2022-07-25T05:00:23;15.10;99.90
61412;DHT22;47278;49.732;7.690;2022-07-25T05:02:49;15.20;99.90
61412;DHT22;47278;49.732;7.690;2022-07-25T05:05:16;15.20;99.90
61412;DHT22;47278;49.732;7.690;2022-07-25T05:07:42;15.20;99.90
61412;DHT22;47278;49.732;7.690;2022-07-25T05:10:08;15.30;99.90
61412;DHT22;47278;49.732;7.690;2022-07-25T05:12:34;15.40;99.90
61412;DHT22;47278;49.732;7.690;2022-07-25T05:15:00;15.40;99.90
61412;DHT22;47278;49.732;7.690;2022-07-25T05:17:26;15.50;99.90
61412;DHT22;47278;49.732;7.690;2022-07-25T05:19:52;15.50;99.90
61412;DHT22;47278;49.732;7.690;2022-07-25T05:22:17;15.60;99.90
61412;DHT22;47278;49.732;7.690;2022-07-25T05:24:43;15.60;99.90
61412;DHT22;47278;49.732;7.690;2022-07-25T05:27:15;15.60;99.90
61412;DHT22;47278;49.732;7.690;2022-07-25T05:29:40;15.80;99.90
61412;DHT22;47278;49.732;7.690;2022-07-25T05:32:06;15.90;99.90
61412;DHT22;47278;49.732;7.690;2022-07-25T05:34:32;15.90;99.90
61412;DHT22;47278;49.732;7.690;2022-07-25T05:36:58;16.00;99.90
61412;DHT22;47278;49.732;7.690;2022-07-25T05:39:26;16.20;99.90
61412;DHT22;47278;49.732;7.690;2022-07-25T05:44:54;16.20;99.90
61412;DHT22;47278;49.732;7.690;2022-07-25T05:47:20;16.50;99.90
61412;DHT22;47278;49.732;7.690;2022-07-25T05:52:49;16.60;99.90
61412;DHT22;47278;49.732;7.690;2022-07-25T05:55:15;16.60;99.90
61412;DHT22;47278;49.732;7.690;2022-07-25T05:57:41;16.70;99.90
61412;DHT22;47278;49.732;7.690;2022-07-25T06:00:07;16.70;99.90
61412;DHT22;47278;49.732;7.690;2022-07-25T06:02:33;16.80;99.90
61412;DHT22;47278;49.732;7.690;2022-07-25T06:04:59;16.90;99.90
61412;DHT22;47278;49.732;7.690;2022-07-25T06:07:25;17.10;99.90
61412;DHT22;47278;49.732;7.690;2022-07-25T06:09:50;17.20;99.90
61412;DHT22;47278;49.732;7.690;2022-07-25T06:15:19;17.40;99.90
61412;DHT22;47278;49.732;7.690;2022-07-25T06:20:47;17.50;99.90
61412;DHT22;47278;49.732;7.690;2022-07-25T06:26:16;17.70;99.90
61412;DHT22;47278;49.732;7.690;2022-07-25T06:31:45;17.90;99.90
61412;DHT22;47278;49.732;7.690;2022-07-25T06:34:11;18.10;99.90
61412;DHT22;47278;49.732;7.690;2022-07-25T06:36:37;18.20;99.90
61412;DHT22;47278;49.732;7.690;2022-07-25T06:39:03;18.30;99.90
61412;DHT22;47278;49.732;7.690;2022-07-25T06:41:28;18.40;99.90
61412;DHT22;47278;49.732;7.690;2022-07-25T06:43:55;18.50;99.90
61412;DHT22;47278;49.732;7.690;2022-07-25T06:46:21;18.60;99.90
61412;DHT22;47278;49.732;7.690;2022-07-25T06:48:46;18.70;99.90
61412;DHT22;47278;49.732;7.690;2022-07-25T06:51:12;18.90;99.90
61412;DHT22;47278;49.732;7.690;2022-07-25T06:53:38;19.00;99.90
61412;DHT22;47278;49.732;7.690;2022-07-25T06:56:04;19.20;99.90
61412;DHT22;47278;49.732;7.690;2022-07-25T07:01:33;19.40;99.90
61412;DHT22;47278;49.732;7.690;2022-07-25T07:03:59;19.60;99.90
61412;DHT22;47278;49.732;7.690;2022-07-25T07:06:25;19.70;99.90
61412;DHT22;47278;49.732;7.690;2022-07-25T07:08:50;19.80;99.90
61412;DHT22;47278;49.732;7.690;2022-07-25T07:14:19;20.10;99.90
61412;DHT22;47278;49.732;7.690;2022-07-25T07:19:49;20.70;99.90
61412;DHT22;47278;49.732;7.690;2022-07-25T07:22:15;20.80;99.90
61412;DHT22;47278;49.732;7.690;2022-07-25T07:24:40;20.90;99.90
61412;DHT22;47278;49.732;7.690;2022-07-25T07:27:06;21.10;99.90
61412;DHT22;47278;49.732;7.690;2022-07-25T07:29:32;21.50;99.90
61412;DHT22;47278;49.732;7.690;2022-07-25T07:31:58;21.60;99.90
61412;DHT22;47278;49.732;7.690;2022-07-25T07:34:25;21.70;99.90
61412;DHT22;47278;49.732;7.690;2022-07-25T07:36:51;21.90;99.90
61412;DHT22;47278;49.732;7.690;2022-07-25T07:39:17;22.20;99.90
61412;DHT22;47278;49.732;7.690;2022-07-25T07:41:43;22.30;99.90
61412;DHT22;47278;49.732;7.690;2022-07-25T07:44:08;22.30;99.90
61412;DHT22;47278;49.732;7.690;2022-07-25T07:46:34;21.40;99.90
61412;DHT22;47278;49.732;7.690;2022-07-25T07:49:00;22.60;99.90
61412;DHT22;47278;49.732;7.690;2022-07-25T07:51:26;22.80;99.90
61412;DHT22;47278;49.732;7.690;2022-07-25T07:53:52;23.00;99.90
61412;DHT22;47278;49.732;7.690;2022-07-25T07:56:36;23.20;99.90
61412;DHT22;47278;49.732;7.690;2022-07-25T07:59:02;23.40;99.90
61412;DHT22;47278;49.732;7.690;2022-07-25T08:04:32;23.90;99.90
61412;DHT22;47278;49.732;7.690;2022-07-25T08:10:00;24.60;99.90
61412;DHT22;47278;49.732;7.690;2022-07-25T08:12:26;24.70;99.90
61412;DHT22;47278;49.732;7.690;2022-07-25T08:14:52;24.90;99.90
61412;DHT22;47278;49.732;7.690;2022-07-25T08:17:18;25.20;99.90
61412;DHT22;47278;49.732;7.690;2022-07-25T08:19:44;25.90;99.90
61412;DHT22;47278;49.732;7.690;2022-07-25T08:22:09;26.10;99.90
61412;DHT22;47278;49.732;7.690;2022-07-25T08:24:35;26.60;99.90
61412;DHT22;47278;49.732;7.690;2022-07-25T08:27:01;26.90;99.90
61412;DHT22;47278;49.732;7.690;2022-07-25T08:29:26;27.20;99.90
61412;DHT22;47278;49.732;7.690;2022-07-25T08:31:52;27.70;99.90
61412;DHT22;47278;49.732;7.690;2022-07-25T08:34:21;28.00;99.90
61412;DHT22;47278;49.732;7.690;2022-07-25T08:36:47;28.30;99.90
61412;DHT22;47278;49.732;7.690;2022-07-25T08:39:13;28.50;99.90
61412;DHT22;47278;49.732;7.690;2022-07-25T08:44:43;28.80;99.90
61412;DHT22;47278;49.732;7.690;2022-07-25T08:47:16;28.80;99.90
61412;DHT22;47278;49.732;7.690;2022-07-25T08:49:42;29.00;99.90
61412;DHT22;47278;49.732;7.690;2022-07-25T08:52:08;28.90;99.90
61412;DHT22;47278;49.732;7.690;2022-07-25T08:54:34;28.80;99.90
61412;DHT22;47278;49.732;7.690;2022-07-25T08:57:00;29.00;99.90
61412;DHT22;47278;49.732;7.690;2022-07-25T08:59:26;29.30;99.90
61412;DHT22;47278;49.732;7.690;2022-07-25T09:01:52;29.30;99.90
61412;DHT22;47278;49.732;7.690;2022-07-25T09:04:17;29.30;99.90
61412;DHT22;47278;49.732;7.690;2022-07-25T09:06:50;29.50;99.90
61412;DHT22;47278;49.732;7.690;2022-07-25T09:09:16;29.70;99.90
61412;DHT22;47278;49.732;7.690;2022-07-25T09:14:45;30.30;99.90
61412;DHT22;47278;49.732;7.690;2022-07-25T09:17:12;30.30;99.90
61412;DHT22;47278;49.732;7.690;2022-07-25T09:19:39;30.50;99.90
61412;DHT22;47278;49.732;7.690;2022-07-25T09:22:15;30.50;99.90
61412;DHT22;47278;49.732;7.690;2022-07-25T09:24:43;30.60;99.90
61412;DHT22;47278;49.732;7.690;2022-07-25T09:27:09;30.90;99.90
61412;DHT22;47278;49.732;7.690;2022-07-25T09:29:37;31.10;99.90
61412;DHT22;47278;49.732;7.690;2022-07-25T09:32:24;31.20;99.90
61412;DHT22;47278;49.732;7.690;2022-07-25T09:34:49;31.20;99.90
61412;DHT22;47278;49.732;7.690;2022-07-25T09:37:16;31.40;99.90
61412;DHT22;47278;49.732;7.690;2022-07-25T09:42:24;31.30;99.90
61412;DHT22;47278;49.732;7.690;2022-07-25T09:44:57;31.90;99.90
61412;DHT22;47278;49.732;7.690;2022-07-25T09:47:23;32.20;99.90
61412;DHT22;47278;49.732;7.690;2022-07-25T09:49:48;31.90;99.90
61412;DHT22;47278;49.732;7.690;2022-07-25T09:55:17;32.20;99.90
61412;DHT22;47278;49.732;7.690;2022-07-25T10:00:47;32.50;99.90
61412;DHT22;47278;49.732;7.690;2022-07-25T10:06:20;32.40;99.90
61412;DHT22;47278;49.732;7.690;2022-07-25T10:12:05;31.70;99.90
61412;DHT22;47278;49.732;7.690;2022-07-25T10:14:31;31.50;99.90
61412;DHT22;47278;49.732;7.690;2022-07-25T10:16:58;31.50;99.90
61412;DHT22;47278;49.732;7.690;2022-07-25T10:19:34;31.70;99.90
61412;DHT22;47278;49.732;7.690;2022-07-25T10:22:00;31.80;99.90
61412;DHT22;47278;49.732;7.690;2022-07-25T10:24:31;32.00;99.90
61412;DHT22;47278;49.732;7.690;2022-07-25T10:26:57;32.10;99.90
61412;DHT22;47278;49.732;7.690;2022-07-25T10:29:33;32.10;99.90
61412;DHT22;47278;49.732;7.690;2022-07-25T10:32:06;32.10;99.90
61412;DHT22;47278;49.732;7.690;2022-07-25T10:34:33;32.30;99.90
61412;DHT22;47278;49.732;7.690;2022-07-25T10:37:08;32.20;99.90
61412;DHT22;47278;49.732;7.690;2022-07-25T10:39:38;32.00;99.90
61412;DHT22;47278;49.732;7.690;2022-07-25T10:42:07;32.20;99.90
61412;DHT22;47278;49.732;7.690;2022-07-25T10:44:43;32.40;99.90
61412;DHT22;47278;49.732;7.690;2022-07-25T10:47:10;32.50;99.90
61412;DHT22;47278;49.732;7.690;2022-07-25T10:49:39;32.40;99.90
61412;DHT22;47278;49.732;7.690;2022-07-25T10:52:06;32.00;99.90
61412;DHT22;47278;49.732;7.690;2022-07-25T10:54:36;31.90;99.90
61412;DHT22;47278;49.732;7.690;2022-07-25T10:57:04;32.40;99.90
61412;DHT22;47278;49.732;7.690;2022-07-25T11:02:33;32.50;99.90
61412;DHT22;47278;49.732;7.690;2022-07-25T11:05:00;33.10;99.90
61412;DHT22;47278;49.732;7.690;2022-07-25T11:07:26;33.00;99.90
61412;DHT22;47278;49.732;7.690;2022-07-25T11:09:57;33.80;99.70
61412;DHT22;47278;49.732;7.690;2022-07-25T11:12:24;34.00;99.60
61412;DHT22;47278;49.732;7.690;2022-07-25T11:14:54;33.70;97.90
61412;DHT22;47278;49.732;7.690;2022-07-25T11:17:22;33.50;97.70
61412;DHT22;47278;49.732;7.690;2022-07-25T11:22:20;33.90;97.60
61412;DHT22;47278;49.732;7.690;2022-07-25T11:24:46;34.00;96.80
61412;DHT22;47278;49.732;7.690;2022-07-25T11:27:25;33.80;96.80
61412;DHT22;47278;49.732;7.690;2022-07-25T11:29:52;33.70;96.70
61412;DHT22;47278;49.732;7.690;2022-07-25T11:32:18;33.60;96.80
61412;DHT22;47278;49.732;7.690;2022-07-25T11:34:47;33.60;96.60
61412;DHT22;47278;49.732;7.690;2022-07-25T11:37:14;33.80;96.50
61412;DHT22;47278;49.732;7.690;2022-07-25T11:39:41;33.40;95.40
61412;DHT22;47278;49.732;7.690;2022-07-25T11:42:14;33.20;95.70
61412;DHT22;47278;49.732;7.690;2022-07-25T11:44:47;32.70;95.50
61412;DHT22;47278;49.732;7.690;2022-07-25T11:50:06;32.50;95.90
61412;DHT22;47278;49.732;7.690;2022-07-25T11:52:34;32.30;96.20
61412;DHT22;47278;49.732;7.690;2022-07-25T11:55:01;32.30;96.60
61412;DHT22;47278;49.732;7.690;2022-07-25T11:57:31;32.30;96.80
61412;DHT22;47278;49.732;7.690;2022-07-25T11:59:58;32.40;97.00
61412;DHT22;47278;49.732;7.690;2022-07-25T12:02:28;32.40;96.80
61412;DHT22;47278;49.732;7.690;2022-07-25T12:05:01;32.20;96.60
61412;DHT22;47278;49.732;7.690;2022-07-25T12:12:50;32.50;96.40
61412;DHT22;47278;49.732;7.690;2022-07-25T12:15:21;32.40;96.90
61412;DHT22;47278;49.732;7.690;2022-07-25T12:17:47;32.40;96.80
61412;DHT22;47278;49.732;7.690;2022-07-25T12:20:21;32.90;97.10
61412;DHT22;47278;49.732;7.690;2022-07-25T12:22:49;32.80;96.70
61412;DHT22;47278;49.732;7.690;2022-07-25T12:25:15;32.90;97.10
61412;DHT22;47278;49.732;7.690;2022-07-25T12:27:42;33.20;97.10
61412;DHT22;47278;49.732;7.690;2022-07-25T12:30:08;32.90;97.40
61412;DHT22;47278;49.732;7.690;2022-07-25T12:32:34;32.60;97.00
61412;DHT22;47278;49.732;7.690;2022-07-25T12:35:01;32.30;97.30
61412;DHT22;47278;49.732;7.690;2022-07-25T12:40:30;32.10;98.10
61412;DHT22;47278;49.732;7.690;2022-07-25T12:42:56;32.40;98.80
61412;DHT22;47278;49.732;7.690;2022-07-25T12:45:23;32.50;98.00
61412;DHT22;47278;49.732;7.690;2022-07-25T12:50:52;33.00;97.20
61412;DHT22;47278;49.732;7.690;2022-07-25T12:53:18;33.00;97.10
61412;DHT22;47278;49.732;7.690;2022-07-25T12:59:00;33.00;96.30
61412;DHT22;47278;49.732;7.690;2022-07-25T13:01:27;32.80;96.80
61412;DHT22;47278;49.732;7.690;2022-07-25T13:03:52;32.70;95.80
61412;DHT22;47278;49.732;7.690;2022-07-25T13:06:18;32.90;95.50
61412;DHT22;47278;49.732;7.690;2022-07-25T13:08:45;33.20;95.60
61412;DHT22;47278;49.732;7.690;2022-07-25T13:11:11;33.00;95.40
61412;DHT22;47278;49.732;7.690;2022-07-25T13:13:37;32.90;95.90
61412;DHT22;47278;49.732;7.690;2022-07-25T13:16:03;32.80;95.40
61412;DHT22;47278;49.732;7.690;2022-07-25T13:18:30;32.90;95.20
61412;DHT22;47278;49.732;7.690;2022-07-25T13:23:58;33.50;94.70
61412;DHT22;47278;49.732;7.690;2022-07-25T13:26:24;33.40;93.50
61412;DHT22;47278;49.732;7.690;2022-07-25T13:28:50;33.50;93.50
61412;DHT22;47278;49.732;7.690;2022-07-25T13:31:19;33.20;93.10
61412;DHT22;47278;49.732;7.690;2022-07-25T13:33:46;33.10;93.50
61412;DHT22;47278;49.732;7.690;2022-07-25T13:36:12;33.40;93.20
61412;DHT22;47278;49.732;7.690;2022-07-25T13:38:38;33.90;93.20
61412;DHT22;47278;49.732;7.690;2022-07-25T13:41:06;33.30;93.60
61412;DHT22;47278;49.732;7.690;2022-07-25T13:46:35;33.60;93.70
61412;DHT22;47278;49.732;7.690;2022-07-25T13:52:04;33.50;93.90
61412;DHT22;47278;49.732;7.690;2022-07-25T13:54:30;33.60;94.10
61412;DHT22;47278;49.732;7.690;2022-07-25T13:56:55;33.10;94.30
61412;DHT22;47278;49.732;7.690;2022-07-25T13:59:21;32.80;94.50
61412;DHT22;47278;49.732;7.690;2022-07-25T14:01:48;33.00;94.70
61412;DHT22;47278;49.732;7.690;2022-07-25T14:04:14;33.50;94.20
61412;DHT22;47278;49.732;7.690;2022-07-25T14:09:43;32.90;94.80
61412;DHT22;47278;49.732;7.690;2022-07-25T14:12:08;33.20;94.60
61412;DHT22;47278;49.732;7.690;2022-07-25T14:17:37;34.10;92.80
61412;DHT22;47278;49.732;7.690;2022-07-25T14:20:04;33.20;93.60
61412;DHT22;47278;49.732;7.690;2022-07-25T14:22:31;33.10;93.90
61412;DHT22;47278;49.732;7.690;2022-07-25T14:24:57;33.30;93.00
61412;DHT22;47278;49.732;7.690;2022-07-25T14:27:23;34.20;92.80
61412;DHT22;47278;49.732;7.690;2022-07-25T14:29:49;33.80;91.60
61412;DHT22;47278;49.732;7.690;2022-07-25T14:32:14;33.80;91.20
61412;DHT22;47278;49.732;7.690;2022-07-25T14:34:40;33.80;91.40
61412;DHT22;47278;49.732;7.690;2022-07-25T14:37:06;33.70;91.30
61412;DHT22;47278;49.732;7.690;2022-07-25T14:39:32;33.50;91.20
61412;DHT22;47278;49.732;7.690;2022-07-25T14:41:58;33.50;91.60
61412;DHT22;47278;49.732;7.690;2022-07-25T14:44:24;33.20;91.70
61412;DHT22;47278;49.732;7.690;2022-07-25T14:46:54;33.70;91.80
61412;DHT22;47278;49.732;7.690;2022-07-25T14:49:23;33.70;91.60
61412;DHT22;47278;49.732;7.690;2022-07-25T14:51:49;34.10;91.70
61412;DHT22;47278;49.732;7.690;2022-07-25T14:54:15;33.40;91.40
61412;DHT22;47278;49.732;7.690;2022-07-25T14:56:41;33.40;91.70
61412;DHT22;47278;49.732;7.690;2022-07-25T14:59:07;33.50;91.50
61412;DHT22;47278;49.732;7.690;2022-07-25T15:04:36;33.40;91.40
61412;DHT22;47278;49.732;7.690;2022-07-25T15:10:05;33.20;91.10
61412;DHT22;47278;49.732;7.690;2022-07-25T15:12:31;32.90;92.20
61412;DHT22;47278;49.732;7.690;2022-07-25T15:14:56;32.60;91.00
61412;DHT22;47278;49.732;7.690;2022-07-25T15:17:23;32.20;91.60
61412;DHT22;47278;49.732;7.690;2022-07-25T15:19:49;32.30;91.00
61412;DHT22;47278;49.732;7.690;2022-07-25T15:22:14;32.10;90.90
61412;DHT22;47278;49.732;7.690;2022-07-25T15:24:40;32.50;90.70
61412;DHT22;47278;49.732;7.690;2022-07-25T15:27:06;32.60;90.90
61412;DHT22;47278;49.732;7.690;2022-07-25T15:29:34;32.50;90.30
61412;DHT22;47278;49.732;7.690;2022-07-25T15:31:59;32.10;90.20
61412;DHT22;47278;49.732;7.690;2022-07-25T15:34:27;31.60;90.10
61412;DHT22;47278;49.732;7.690;2022-07-25T15:36:53;31.70;90.30
61412;DHT22;47278;49.732;7.690;2022-07-25T15:39:19;31.90;90.20
61412;DHT22;47278;49.732;7.690;2022-07-25T15:41:45;33.10;89.30
61412;DHT22;47278;49.732;7.690;2022-07-25T15:44:10;34.10;87.30
61412;DHT22;47278;49.732;7.690;2022-07-25T15:46:37;34.70;87.00
61412;DHT22;47278;49.732;7.690;2022-07-25T15:49:03;34.90;85.50
61412;DHT22;47278;49.732;7.690;2022-07-25T15:51:29;35.40;85.10
61412;DHT22;47278;49.732;7.690;2022-07-25T15:53:55;35.00;83.80
61412;DHT22;47278;49.732;7.690;2022-07-25T15:56:20;35.60;82.20
61412;DHT22;47278;49.732;7.690;2022-07-25T15:58:47;35.10;79.80
61412;DHT22;47278;49.732;7.690;2022-07-25T16:01:13;35.20;80.30
61412;DHT22;47278;49.732;7.690;2022-07-25T16:03:39;34.80;79.20
61412;DHT22;47278;49.732;7.690;2022-07-25T16:06:05;34.00;78.20
61412;DHT22;47278;49.732;7.690;2022-07-25T16:08:31;33.80;80.00
61412;DHT22;47278;49.732;7.690;2022-07-25T16:10:57;34.60;80.00
61412;DHT22;47278;49.732;7.690;2022-07-25T16:13:24;35.10;80.00
61412;DHT22;47278;49.732;7.690;2022-07-25T16:15:50;35.00;80.50
61412;DHT22;47278;49.732;7.690;2022-07-25T16:18:16;34.80;80.00
61412;DHT22;47278;49.732;7.690;2022-07-25T16:20:41;32.60;80.50
61412;DHT22;47278;49.732;7.690;2022-07-25T16:23:07;32.40;78.40
61412;DHT22;47278;49.732;7.690;2022-07-25T16:25:33;32.40;78.70
61412;DHT22;47278;49.732;7.690;2022-07-25T16:27:59;32.30;79.70
61412;DHT22;47278;49.732;7.690;2022-07-25T16:30:25;32.80;80.40
61412;DHT22;47278;49.732;7.690;2022-07-25T16:32:51;34.20;78.50
61412;DHT22;47278;49.732;7.690;2022-07-25T16:35:17;33.40;81.00
61412;DHT22;47278;49.732;7.690;2022-07-25T16:37:43;34.00;80.50
61412;DHT22;47278;49.732;7.690;2022-07-25T16:40:12;34.60;80.30
61412;DHT22;47278;49.732;7.690;2022-07-25T16:42:38;34.40;79.10
61412;DHT22;47278;49.732;7.690;2022-07-25T16:45:04;32.90;81.10
61412;DHT22;47278;49.732;7.690;2022-07-25T16:47:30;31.90;82.00
61412;DHT22;47278;49.732;7.690;2022-07-25T16:49:56;33.20;81.00
61412;DHT22;47278;49.732;7.690;2022-07-25T16:52:22;34.30;79.40
61412;DHT22;47278;49.732;7.690;2022-07-25T16:54:48;31.40;84.30
61412;DHT22;47278;49.732;7.690;2022-07-25T16:57:14;31.30;87.50
61412;DHT22;47278;49.732;7.690;2022-07-25T16:59:39;31.20;88.80
61412;DHT22;47278;49.732;7.690;2022-07-25T17:02:05;31.30;88.40
61412;DHT22;47278;49.732;7.690;2022-07-25T17:04:31;32.30;86.80
61412;DHT22;47278;49.732;7.690;2022-07-25T17:06:57;32.80;85.20